AWW41MK EGFF-EHAM
Flight info
| Callsign | AWW41MK |
|---|---|
| Flight time | 0h 53m |
| Altitude | 33000 |
| Route | LEKCI P4 HAWFA L607 ALHAD P72 IPRIL M197 REDFA |
| Aircraft | A320/M-SDE3FGHIRWY/LB1 |
Departure
| Time | 2026-05-07 09:58 |
|---|---|
| Airport | Cardiff International Airport (EGFF) |
Arrival
| Time | 2026-05-07 10:51 |
|---|---|
| Airport | Amsterdam Airport Schiphol (EHAM) |
| Time | Latitude | Longitude | Altitude | Speed | Heading |
|---|---|---|---|---|---|
| 2026-05-07 09:35 | 51.39771 | -3.33721 | 223 ft | 0 kts | 298° |
| 2026-05-07 09:50 | 51.39761 | -3.33688 | 222 ft | 4 kts | 282° |
| 2026-05-07 09:50 | 51.39761 | -3.33647 | 222 ft | 4 kts | 242° |
| 2026-05-07 09:50 | 51.39775 | -3.33622 | 225 ft | 1 kts | 206° |
| 2026-05-07 09:51 | 51.39779 | -3.33619 | 225 ft | 0 kts | 206° |
| 2026-05-07 09:53 | 51.39763 | -3.33632 | 222 ft | 6 kts | 207° |
| 2026-05-07 09:53 | 51.39709 | -3.33675 | 222 ft | 11 kts | 206° |
| 2026-05-07 09:54 | 51.39666 | -3.33758 | 222 ft | 10 kts | 276° |
| 2026-05-07 09:54 | 51.39695 | -3.33849 | 222 ft | 9 kts | 297° |
| 2026-05-07 09:54 | 51.39727 | -3.33954 | 222 ft | 15 kts | 296° |
| 2026-05-07 09:54 | 51.39787 | -3.34138 | 222 ft | 22 kts | 297° |
| 2026-05-07 09:55 | 51.39864 | -3.34386 | 222 ft | 25 kts | 297° |
| 2026-05-07 09:55 | 51.39946 | -3.34645 | 223 ft | 27 kts | 297° |
| 2026-05-07 09:55 | 51.40030 | -3.34910 | 218 ft | 27 kts | 297° |
| 2026-05-07 09:55 | 51.40068 | -3.35031 | 219 ft | 23 kts | 296° |
| 2026-05-07 09:56 | 51.40141 | -3.35263 | 214 ft | 22 kts | 296° |
| 2026-05-07 09:56 | 51.40140 | -3.35437 | 213 ft | 1 kts | 238° |
| 2026-05-07 09:56 | 51.40140 | -3.35438 | 213 ft | 0 kts | 238° |
| 2026-05-07 09:57 | 51.40094 | -3.35509 | 216 ft | 15 kts | 208° |
| 2026-05-07 09:57 | 51.40026 | -3.35489 | 214 ft | 11 kts | 120° |
| 2026-05-07 09:57 | 51.39970 | -3.35314 | 217 ft | 39 kts | 117° |
| 2026-05-07 09:58 | 51.39738 | -3.34574 | 223 ft | 106 kts | 117° |
| 2026-05-07 09:58 | 51.39326 | -3.33273 | 325 ft | 145 kts | 117° |
| 2026-05-07 09:58 | 51.38890 | -3.31923 | 1103 ft | 128 kts | 119° |
| 2026-05-07 09:58 | 51.38488 | -3.30614 | 1564 ft | 136 kts | 119° |
| 2026-05-07 09:59 | 51.38064 | -3.29225 | 2009 ft | 141 kts | 118° |
| 2026-05-07 09:59 | 51.37619 | -3.27741 | 2317 ft | 155 kts | 118° |
| 2026-05-07 09:59 | 51.37136 | -3.26106 | 2616 ft | 171 kts | 118° |
| 2026-05-07 09:59 | 51.36589 | -3.24242 | 2775 ft | 197 kts | 118° |
| 2026-05-07 10:00 | 51.35995 | -3.22187 | 3054 ft | 218 kts | 114° |
| 2026-05-07 10:00 | 51.35772 | -3.19655 | 3368 ft | 248 kts | 83° |
| 2026-05-07 10:00 | 51.36586 | -3.17131 | 3984 ft | 268 kts | 45° |
| 2026-05-07 10:00 | 51.38271 | -3.15752 | 4815 ft | 276 kts | 8° |
| 2026-05-07 10:01 | 51.40168 | -3.16103 | 5621 ft | 281 kts | 335° |
| 2026-05-07 10:01 | 51.41683 | -3.17976 | 5920 ft | 274 kts | 302° |
| 2026-05-07 10:01 | 51.42328 | -3.20768 | 6006 ft | 267 kts | 274° |
| 2026-05-07 10:01 | 51.42368 | -3.23727 | 6005 ft | 266 kts | 269° |
| 2026-05-07 10:02 | 51.42575 | -3.25660 | 6007 ft | 269 kts | 290° |
| 2026-05-07 10:02 | 51.43728 | -3.28013 | 6013 ft | 276 kts | 325° |
| 2026-05-07 10:02 | 51.45543 | -3.28945 | 6008 ft | 279 kts | 0° |
| 2026-05-07 10:02 | 51.47390 | -3.28108 | 6010 ft | 280 kts | 33° |
| 2026-05-07 10:03 | 51.48837 | -3.26045 | 6011 ft | 279 kts | 53° |
| 2026-05-07 10:03 | 51.49831 | -3.23392 | 6038 ft | 279 kts | 71° |
| 2026-05-07 10:03 | 51.50214 | -3.20358 | 6817 ft | 279 kts | 87° |
| 2026-05-07 10:03 | 51.50416 | -3.17207 | 7693 ft | 282 kts | 85° |
| 2026-05-07 10:04 | 51.50694 | -3.14079 | 8553 ft | 285 kts | 82° |
| 2026-05-07 10:04 | 51.51090 | -3.10935 | 9408 ft | 289 kts | 78° |
| 2026-05-07 10:04 | 51.51622 | -3.07800 | 10218 ft | 293 kts | 75° |
| 2026-05-07 10:04 | 51.52287 | -3.04677 | 10990 ft | 297 kts | 71° |
| 2026-05-07 10:05 | 51.53077 | -3.01592 | 11745 ft | 301 kts | 67° |
| 2026-05-07 10:05 | 51.53995 | -2.98557 | 12499 ft | 304 kts | 64° |
| 2026-05-07 10:05 | 51.55044 | -2.95581 | 13249 ft | 308 kts | 60° |
| 2026-05-07 10:05 | 51.56250 | -2.92669 | 13734 ft | 323 kts | 54° |
| 2026-05-07 10:06 | 51.57694 | -2.89747 | 13892 ft | 345 kts | 52° |
| 2026-05-07 10:06 | 51.59022 | -2.86491 | 14319 ft | 352 kts | 70° |
| 2026-05-07 10:06 | 51.59387 | -2.82638 | 14884 ft | 351 kts | 97° |
| 2026-05-07 10:06 | 51.58654 | -2.78929 | 15467 ft | 351 kts | 120° |
| 2026-05-07 10:07 | 51.57431 | -2.75514 | 16085 ft | 354 kts | 122° |
| 2026-05-07 10:07 | 51.56190 | -2.72081 | 16693 ft | 358 kts | 122° |
| 2026-05-07 10:07 | 51.54928 | -2.68599 | 17295 ft | 362 kts | 122° |
| 2026-05-07 10:07 | 51.53750 | -2.64993 | 17867 ft | 368 kts | 112° |
| 2026-05-07 10:08 | 51.53194 | -2.60945 | 18415 ft | 376 kts | 96° |
| 2026-05-07 10:08 | 51.52974 | -2.56749 | 18941 ft | 379 kts | 96° |
| 2026-05-07 10:08 | 51.52766 | -2.52514 | 19476 ft | 382 kts | 96° |
| 2026-05-07 10:08 | 51.52539 | -2.48246 | 20008 ft | 385 kts | 96° |
| 2026-05-07 10:09 | 51.52282 | -2.43944 | 20551 ft | 388 kts | 97° |
| 2026-05-07 10:09 | 51.52004 | -2.39621 | 21090 ft | 391 kts | 97° |
| 2026-05-07 10:09 | 51.51708 | -2.35267 | 21650 ft | 393 kts | 97° |
| 2026-05-07 10:09 | 51.51402 | -2.30894 | 22195 ft | 396 kts | 97° |
| 2026-05-07 10:10 | 51.51090 | -2.26481 | 22725 ft | 399 kts | 97° |
| 2026-05-07 10:10 | 51.50775 | -2.22042 | 23252 ft | 402 kts | 97° |
| 2026-05-07 10:10 | 51.50461 | -2.17567 | 23747 ft | 405 kts | 97° |
| 2026-05-07 10:10 | 51.50147 | -2.13066 | 24162 ft | 407 kts | 97° |
| 2026-05-07 10:11 | 51.49831 | -2.08543 | 24585 ft | 409 kts | 97° |
| 2026-05-07 10:11 | 51.49510 | -2.03988 | 25007 ft | 411 kts | 97° |
| 2026-05-07 10:11 | 51.49189 | -1.99422 | 25417 ft | 413 kts | 98° |
| 2026-05-07 10:11 | 51.48866 | -1.94830 | 25820 ft | 415 kts | 97° |
| 2026-05-07 10:12 | 51.48541 | -1.90217 | 26214 ft | 417 kts | 97° |
| 2026-05-07 10:12 | 51.48211 | -1.85598 | 26619 ft | 418 kts | 97° |
| 2026-05-07 10:12 | 51.47875 | -1.80952 | 27003 ft | 420 kts | 97° |
| 2026-05-07 10:12 | 51.47532 | -1.76293 | 27384 ft | 421 kts | 97° |
| 2026-05-07 10:13 | 51.47183 | -1.71621 | 27768 ft | 423 kts | 97° |
| 2026-05-07 10:13 | 51.46788 | -1.66937 | 28145 ft | 424 kts | 101° |
| 2026-05-07 10:13 | 51.46166 | -1.62306 | 28504 ft | 426 kts | 103° |
| 2026-05-07 10:13 | 51.45534 | -1.57659 | 28856 ft | 428 kts | 103° |
| 2026-05-07 10:14 | 51.44898 | -1.52989 | 29051 ft | 427 kts | 103° |
| 2026-05-07 10:14 | 51.44275 | -1.48431 | 29076 ft | 411 kts | 103° |
| 2026-05-07 10:14 | 51.43667 | -1.43998 | 29076 ft | 405 kts | 103° |
| 2026-05-07 10:15 | 51.42460 | -1.35231 | 29078 ft | 402 kts | 103° |
| 2026-05-07 10:15 | 51.41248 | -1.26490 | 29078 ft | 402 kts | 103° |
| 2026-05-07 10:16 | 51.40447 | -1.17656 | 29079 ft | 403 kts | 89° |
| 2026-05-07 10:16 | 51.40746 | -1.13198 | 29080 ft | 403 kts | 78° |
| 2026-05-07 10:16 | 51.41543 | -1.08897 | 29078 ft | 404 kts | 68° |
| 2026-05-07 10:17 | 51.44014 | -1.00703 | 29082 ft | 419 kts | 64° |
| 2026-05-07 10:17 | 51.46636 | -0.92110 | 29077 ft | 439 kts | 64° |
| 2026-05-07 10:18 | 51.49354 | -0.83140 | 29080 ft | 455 kts | 65° |
| 2026-05-07 10:18 | 51.52153 | -0.73884 | 29082 ft | 466 kts | 64° |
| 2026-05-07 10:19 | 51.54993 | -0.64489 | 29083 ft | 468 kts | 64° |
| 2026-05-07 10:19 | 51.57812 | -0.55123 | 29083 ft | 467 kts | 64° |
| 2026-05-07 10:20 | 51.60623 | -0.45710 | 29085 ft | 462 kts | 65° |
| 2026-05-07 10:20 | 51.63400 | -0.36372 | 29086 ft | 462 kts | 65° |
| 2026-05-07 10:21 | 51.66168 | -0.27047 | 29082 ft | 462 kts | 65° |
| 2026-05-07 10:21 | 51.68398 | -0.17387 | 29078 ft | 460 kts | 75° |
| 2026-05-07 10:22 | 51.70064 | -0.07433 | 29072 ft | 460 kts | 76° |
| 2026-05-07 10:22 | 51.71599 | 0.02588 | 29084 ft | 461 kts | 76° |
| 2026-05-07 10:23 | 51.73112 | 0.12629 | 29084 ft | 461 kts | 76° |
| 2026-05-07 10:23 | 51.74656 | 0.22672 | 29088 ft | 461 kts | 76° |
| 2026-05-07 10:24 | 51.76205 | 0.32722 | 29089 ft | 461 kts | 76° |
| 2026-05-07 10:24 | 51.77744 | 0.42783 | 29089 ft | 462 kts | 76° |
| 2026-05-07 10:25 | 51.79270 | 0.52869 | 29086 ft | 463 kts | 76° |
| 2026-05-07 10:25 | 51.80783 | 0.62977 | 29075 ft | 463 kts | 76° |
| 2026-05-07 10:26 | 51.82310 | 0.73065 | 29094 ft | 461 kts | 76° |
| 2026-05-07 10:26 | 51.83872 | 0.83119 | 29105 ft | 460 kts | 75° |
| 2026-05-07 10:27 | 51.85624 | 0.93064 | 29109 ft | 459 kts | 73° |
| 2026-05-07 10:27 | 51.86560 | 0.98004 | 28764 ft | 460 kts | 73° |
| 2026-05-07 10:27 | 51.87504 | 1.02948 | 28484 ft | 459 kts | 73° |
| 2026-05-07 10:27 | 51.88439 | 1.07902 | 28205 ft | 461 kts | 73° |
| 2026-05-07 10:28 | 51.89360 | 1.12874 | 27940 ft | 461 kts | 73° |
| 2026-05-07 10:28 | 51.90263 | 1.17863 | 27664 ft | 463 kts | 74° |
| 2026-05-07 10:28 | 51.91155 | 1.22886 | 27404 ft | 464 kts | 74° |
| 2026-05-07 10:28 | 51.92040 | 1.27911 | 27139 ft | 466 kts | 74° |
| 2026-05-07 10:29 | 51.92934 | 1.32961 | 26882 ft | 467 kts | 74° |
| 2026-05-07 10:29 | 51.93832 | 1.38024 | 26622 ft | 468 kts | 74° |
| 2026-05-07 10:29 | 51.94732 | 1.43100 | 26366 ft | 469 kts | 74° |
| 2026-05-07 10:30 | 51.96541 | 1.53310 | 25860 ft | 473 kts | 74° |
| 2026-05-07 10:30 | 51.97447 | 1.58447 | 25610 ft | 474 kts | 74° |
| 2026-05-07 10:30 | 51.98349 | 1.63591 | 25361 ft | 475 kts | 74° |
| 2026-05-07 10:30 | 51.99249 | 1.68760 | 25119 ft | 477 kts | 74° |
| 2026-05-07 10:31 | 52.00115 | 1.73959 | 24870 ft | 478 kts | 75° |
| 2026-05-07 10:31 | 52.00938 | 1.79191 | 24625 ft | 479 kts | 76° |
| 2026-05-07 10:31 | 52.01733 | 1.84442 | 24393 ft | 480 kts | 76° |
| 2026-05-07 10:31 | 52.02525 | 1.89720 | 24154 ft | 481 kts | 76° |
| 2026-05-07 10:32 | 52.03322 | 1.94999 | 23914 ft | 481 kts | 76° |
| 2026-05-07 10:32 | 52.04124 | 2.00272 | 23676 ft | 482 kts | 76° |
| 2026-05-07 10:32 | 52.04933 | 2.05568 | 23400 ft | 483 kts | 76° |
| 2026-05-07 10:32 | 52.05742 | 2.10861 | 23134 ft | 483 kts | 76° |
| 2026-05-07 10:33 | 52.06553 | 2.16160 | 23092 ft | 482 kts | 76° |
| 2026-05-07 10:33 | 52.07361 | 2.21455 | 23105 ft | 483 kts | 76° |
| 2026-05-07 10:33 | 52.08166 | 2.26758 | 23093 ft | 483 kts | 76° |
| 2026-05-07 10:33 | 52.08952 | 2.31963 | 22841 ft | 464 kts | 76° |
| 2026-05-07 10:34 | 52.09701 | 2.36959 | 22568 ft | 446 kts | 76° |
| 2026-05-07 10:34 | 52.10421 | 2.41768 | 22297 ft | 431 kts | 76° |
| 2026-05-07 10:34 | 52.11129 | 2.46424 | 22029 ft | 417 kts | 73° |
| 2026-05-07 10:34 | 52.12190 | 2.50731 | 21764 ft | 405 kts | 61° |
| 2026-05-07 10:35 | 52.13593 | 2.54638 | 21500 ft | 395 kts | 59° |
| 2026-05-07 10:35 | 52.14979 | 2.58447 | 21237 ft | 390 kts | 59° |
| 2026-05-07 10:35 | 52.16359 | 2.62246 | 20982 ft | 389 kts | 59° |
| 2026-05-07 10:35 | 52.17733 | 2.66042 | 20725 ft | 389 kts | 59° |
| 2026-05-07 10:36 | 52.19100 | 2.69830 | 20469 ft | 387 kts | 59° |
| 2026-05-07 10:36 | 52.20460 | 2.73610 | 20215 ft | 386 kts | 59° |
| 2026-05-07 10:36 | 52.21798 | 2.77395 | 19969 ft | 385 kts | 63° |
| 2026-05-07 10:36 | 52.22654 | 2.81500 | 19719 ft | 383 kts | 81° |
| 2026-05-07 10:37 | 52.22809 | 2.85826 | 19475 ft | 383 kts | 89° |
| 2026-05-07 10:37 | 52.22829 | 2.90161 | 19230 ft | 381 kts | 90° |
| 2026-05-07 10:37 | 52.22838 | 2.94476 | 18986 ft | 380 kts | 90° |
| 2026-05-07 10:37 | 52.22842 | 2.98786 | 18743 ft | 379 kts | 90° |
| 2026-05-07 10:38 | 52.22844 | 3.03079 | 18506 ft | 377 kts | 90° |
| 2026-05-07 10:38 | 52.22845 | 3.07349 | 18247 ft | 376 kts | 90° |
| 2026-05-07 10:38 | 52.22848 | 3.11617 | 17974 ft | 375 kts | 90° |
| 2026-05-07 10:38 | 52.22853 | 3.15863 | 17570 ft | 373 kts | 90° |
| 2026-05-07 10:39 | 52.22860 | 3.20081 | 17120 ft | 371 kts | 90° |
| 2026-05-07 10:39 | 52.22864 | 3.24220 | 16681 ft | 369 kts | 90° |
| 2026-05-07 10:39 | 52.22864 | 3.28383 | 16248 ft | 366 kts | 89° |
| 2026-05-07 10:39 | 52.22861 | 3.32518 | 15818 ft | 364 kts | 90° |
| 2026-05-07 10:40 | 52.22858 | 3.36637 | 15383 ft | 362 kts | 90° |
| 2026-05-07 10:40 | 52.22852 | 3.40723 | 14955 ft | 359 kts | 89° |
| 2026-05-07 10:40 | 52.22845 | 3.44788 | 14531 ft | 357 kts | 89° |
| 2026-05-07 10:40 | 52.22836 | 3.48830 | 14114 ft | 355 kts | 90° |
| 2026-05-07 10:41 | 52.22823 | 3.52846 | 13657 ft | 353 kts | 90° |
| 2026-05-07 10:41 | 52.22811 | 3.56833 | 13233 ft | 350 kts | 89° |
| 2026-05-07 10:41 | 52.22799 | 3.60792 | 12806 ft | 348 kts | 89° |
| 2026-05-07 10:41 | 52.22787 | 3.64719 | 12386 ft | 345 kts | 89° |
| 2026-05-07 10:42 | 52.22775 | 3.68612 | 11962 ft | 342 kts | 90° |
| 2026-05-07 10:42 | 52.22758 | 3.72481 | 11535 ft | 339 kts | 90° |
| 2026-05-07 10:42 | 52.22748 | 3.75019 | 11255 ft | 337 kts | 90° |
| 2026-05-07 10:42 | 52.22727 | 3.80110 | 10678 ft | 334 kts | 90° |
| 2026-05-07 10:43 | 52.22715 | 3.82666 | 10413 ft | 332 kts | 90° |
| 2026-05-07 10:43 | 52.22696 | 3.86351 | 10282 ft | 318 kts | 90° |
| 2026-05-07 10:43 | 52.22675 | 3.89842 | 10159 ft | 306 kts | 90° |
| 2026-05-07 10:43 | 52.22658 | 3.93249 | 10034 ft | 295 kts | 90° |
| 2026-05-07 10:44 | 52.22641 | 3.96555 | 9750 ft | 290 kts | 90° |
| 2026-05-07 10:44 | 52.22622 | 3.99825 | 9384 ft | 287 kts | 90° |
| 2026-05-07 10:44 | 52.22603 | 4.03066 | 8996 ft | 285 kts | 90° |
| 2026-05-07 10:44 | 52.22587 | 4.13129 | 7739 ft | 271 kts | 80° |
| 2026-05-07 10:45 | 52.23420 | 4.15967 | 7108 ft | 268 kts | 72° |
| 2026-05-07 10:45 | 52.23491 | 4.18841 | 7071 ft | 252 kts | 104° |
| 2026-05-07 10:45 | 52.22958 | 4.21643 | 6363 ft | 265 kts | 108° |
| 2026-05-07 10:45 | 52.22429 | 4.24546 | 5842 ft | 268 kts | 101° |
| 2026-05-07 10:46 | 52.22207 | 4.27588 | 5407 ft | 266 kts | 92° |
| 2026-05-07 10:46 | 52.22173 | 4.30588 | 5002 ft | 264 kts | 88° |
| 2026-05-07 10:46 | 52.22200 | 4.33573 | 4591 ft | 262 kts | 88° |
| 2026-05-07 10:46 | 52.22230 | 4.36496 | 4188 ft | 260 kts | 87° |
| 2026-05-07 10:47 | 52.22247 | 4.39496 | 3530 ft | 267 kts | 88° |
| 2026-05-07 10:47 | 52.22245 | 4.42541 | 3127 ft | 264 kts | 89° |
| 2026-05-07 10:47 | 52.22228 | 4.45486 | 2921 ft | 256 kts | 89° |
| 2026-05-07 10:47 | 52.22205 | 4.48373 | 2784 ft | 254 kts | 89° |
| 2026-05-07 10:48 | 52.22177 | 4.51186 | 2667 ft | 241 kts | 90° |
| 2026-05-07 10:48 | 52.22147 | 4.53844 | 2565 ft | 228 kts | 90° |
| 2026-05-07 10:48 | 52.22319 | 4.56292 | 2449 ft | 216 kts | 70° |
| 2026-05-07 10:48 | 52.23013 | 4.58467 | 2201 ft | 213 kts | 57° |
| 2026-05-07 10:49 | 52.23803 | 4.60493 | 1924 ft | 211 kts | 57° |
| 2026-05-07 10:49 | 52.24590 | 4.62521 | 1635 ft | 211 kts | 56° |
| 2026-05-07 10:49 | 52.25369 | 4.64536 | 1342 ft | 209 kts | 56° |
| 2026-05-07 10:49 | 52.26122 | 4.66487 | 1058 ft | 201 kts | 57° |
| 2026-05-07 10:50 | 52.26847 | 4.68367 | 815 ft | 186 kts | 56° |
| 2026-05-07 10:50 | 52.27511 | 4.70090 | 549 ft | 172 kts | 57° |
| 2026-05-07 10:50 | 52.28125 | 4.71668 | 322 ft | 159 kts | 55° |
| 2026-05-07 10:50 | 52.28689 | 4.73135 | 108 ft | 148 kts | 56° |
| 2026-05-07 10:51 | 52.29216 | 4.74535 | 3 ft | 135 kts | 58° |
| 2026-05-07 10:51 | 52.29635 | 4.75608 | -1 ft | 87 kts | 57° |
| 2026-05-07 10:51 | 52.29864 | 4.76205 | -6 ft | 37 kts | 57° |
| 2026-05-07 10:51 | 52.29999 | 4.76499 | -3 ft | 30 kts | 39° |
| 2026-05-07 10:52 | 52.30153 | 4.76643 | -2 ft | 7 kts | 28° |
| 2026-05-07 10:52 | 52.30156 | 4.76646 | -2 ft | 0 kts | 28° |
| 2026-05-07 10:53 | 52.30168 | 4.76657 | -2 ft | 7 kts | 28° |
| 2026-05-07 10:53 | 52.30242 | 4.76723 | -3 ft | 16 kts | 28° |
| 2026-05-07 10:53 | 52.30323 | 4.76860 | -3 ft | 18 kts | 62° |
| 2026-05-07 10:53 | 52.30399 | 4.77033 | -3 ft | 17 kts | 34° |
| 2026-05-07 10:54 | 52.30504 | 4.76967 | -3 ft | 18 kts | 329° |
| 2026-05-07 10:54 | 52.30604 | 4.76872 | -2 ft | 11 kts | 330° |
| 2026-05-07 10:54 | 52.30657 | 4.76926 | -2 ft | 10 kts | 81° |
| 2026-05-07 10:54 | 52.30646 | 4.77035 | -2 ft | 9 kts | 96° |
| 2026-05-07 10:55 | 52.30643 | 4.77130 | -2 ft | 8 kts | 92° |
| 2026-05-07 10:55 | 52.30647 | 4.77196 | -2 ft | 4 kts | 56° |
| 2026-05-07 10:55 | 52.30669 | 4.77210 | -2 ft | 3 kts | 7° |
| 2026-05-07 10:55 | 52.30685 | 4.77212 | -2 ft | 2 kts | 4° |
| 2026-05-07 10:56 | 52.30693 | 4.77213 | -2 ft | 1 kts | 6° |
| 2026-05-07 10:56 | 52.30696 | 4.77214 | -2 ft | 0 kts | 5° |